Time;durP1;ratioP1;P1;durP2;ratioP2;P2;SDS_P1;SDS_P2;PMS_P1;PMS_P2;Temp;Humidity;BMP_temperature;BMP_pressure;BME280_temperature;BME280_humidity;BME280_pressure;Samples;Min_cycle;Max_cycle;Signal;HPM_P1;HPM_P2
2021/12/27 00:00:20;;;;;;;17.80;11.18;;;;;;;2.61;71.46;99783.31;687710;28;1231;-83
2021/12/27 00:00:42;;;;;;;17.65;11.35;;;;;;;2.53;71.16;99760.69;682520;28;1108;-83
2021/12/27 00:01:09;;;;;;;16.35;11.10;;;;;;;2.59;71.32;99775.50;679940;29;1224;-83
2021/12/27 00:01:33;;;;;;;17.98;11.50;;;;;;;2.55;71.65;99763.28;682492;28;1232;-83
2021/12/27 00:01:54;;;;;;;18.80;11.93;;;;;;;2.56;71.19;99759.91;690023;28;1091;-83
2021/12/27 00:02:15;;;;;;;19.52;12.38;;;;;;;2.55;71.54;99771.03;687271;28;1650;-83
2021/12/27 00:02:37;;;;;;;18.50;11.90;;;;;;;2.57;71.07;99765.13;688079;28;1247;-83
2021/12/27 00:03:00;;;;;;;18.75;11.35;;;;;;;2.63;71.10;99766.22;685060;28;1241;-83
2021/12/27 00:03:21;;;;;;;18.48;11.20;;;;;;;2.66;71.33;99781.81;684896;28;1298;-83
2021/12/27 00:03:42;;;;;;;17.42;11.00;;;;;;;2.66;71.35;99774.06;684793;28;1185;-83
2021/12/27 00:04:02;;;;;;;16.50;10.90;;;;;;;2.71;71.47;99770.88;685365;28;1059;-83
2021/12/27 00:04:23;;;;;;;17.17;10.90;;;;;;;2.70;71.52;99769.13;685230;28;1023;-83
2021/12/27 00:04:44;;;;;;;17.23;11.03;;;;;;;2.77;71.55;99778.03;685412;28;1299;-83
2021/12/27 00:05:05;;;;;;;16.30;10.95;;;;;;;2.66;71.24;99751.78;682459;29;1091;-83
2021/12/27 00:05:27;;;;;;;14.98;10.70;;;;;;;2.78;71.28;99777.19;679888;29;1911;-83
2021/12/27 00:05:48;;;;;;;15.88;11.40;;;;;;;2.70;71.42;99765.69;686347;28;1386;-83
2021/12/27 00:06:09;;;;;;;16.40;11.30;;;;;;;2.67;71.26;99762.94;687783;28;1055;-83
2021/12/27 00:06:30;;;;;;;16.23;11.18;;;;;;;2.68;71.28;99759.56;687197;28;823;-83
2021/12/27 00:06:51;;;;;;;15.27;10.57;;;;;;;2.67;71.74;99769.00;687003;28;1151;-83
2021/12/27 00:07:12;;;;;;;16.52;11.43;;;;;;;2.58;71.57;99758.31;687882;28;970;-83
2021/12/27 00:07:32;;;;;;;18.02;11.80;;;;;;;2.57;71.65;99757.41;687876;28;1181;-83
2021/12/27 00:07:54;;;;;;;18.23;11.82;;;;;;;2.65;71.92;99775.78;689300;28;1061;-83
2021/12/27 00:08:15;;;;;;;17.67;11.27;;;;;;;2.58;71.90;99769.47;690173;28;1453;-83
2021/12/27 00:08:41;;;;;;;16.70;10.88;;;;;;;2.58;71.46;99766.03;679950;29;1128;-83
2021/12/27 00:09:02;;;;;;;15.57;10.50;;;;;;;2.55;72.07;99765.88;679420;29;1331;-83
2021/12/27 00:09:23;;;;;;;16.20;10.80;;;;;;;2.52;72.09;99768.31;679937;29;1380;-83
2021/12/27 00:09:43;;;;;;;17.03;10.80;;;;;;;2.61;71.81;99776.44;683265;28;1683;-83
2021/12/27 00:10:05;;;;;;;16.80;10.88;;;;;;;2.54;71.75;99761.53;685142;28;1261;-83
2021/12/27 00:10:27;;;;;;;16.00;10.80;;;;;;;2.60;71.80;99769.53;687877;28;1129;-83
2021/12/27 00:10:48;;;;;;;16.27;10.90;;;;;;;2.55;72.03;99758.13;686443;28;1174;-83
2021/12/27 00:11:11;;;;;;;16.75;11.10;;;;;;;2.61;71.96;99770.44;687687;28;1254;-84
2021/12/27 00:11:32;;;;;;;18.52;11.65;;;;;;;2.53;72.00;99775.22;687764;28;1118;-83
2021/12/27 00:11:52;;;;;;;18.80;11.90;;;;;;;2.56;72.13;99765.06;687821;28;1178;-83
2021/12/27 00:12:15;;;;;;;18.23;11.80;;;;;;;2.54;72.38;99772.75;682490;29;1148;-82
2021/12/27 00:12:36;;;;;;;17.27;11.80;;;;;;;2.49;72.21;99761.34;677297;29;1846;-83
2021/12/27 00:12:57;;;;;;;17.88;11.80;;;;;;;2.48;72.56;99763.84;684133;28;1167;-82
2021/12/27 00:13:19;;;;;;;17.42;11.60;;;;;;;2.48;72.20;99766.41;682324;28;1270;-83
2021/12/27 00:13:40;;;;;;;16.80;11.05;;;;;;;2.52;72.28;99769.22;682659;28;1266;-83
2021/12/27 00:14:01;;;;;;;16.33;11.15;;;;;;;2.48;72.07;99761.25;690636;28;1243;-83
2021/12/27 00:14:21;;;;;;;16.57;11.13;;;;;;;2.48;72.64;99756.09;687779;28;886;-83
2021/12/27 00:14:42;;;;;;;16.77;11.23;;;;;;;2.51;72.31;99766.56;686572;28;1027;-83
2021/12/27 00:15:03;;;;;;;17.67;11.20;;;;;;;2.48;72.73;99761.25;687617;28;1023;-83
2021/12/27 00:15:25;;;;;;;18.75;10.95;;;;;;;2.44;72.47;99747.38;687935;28;1008;-84
2021/12/27 00:15:46;;;;;;;19.33;11.20;;;;;;;2.54;72.77;99777.00;690504;28;1280;-83
2021/12/27 00:16:25;;;;;;;19.85;11.55;;;;;;;2.45;72.27;99757.75;684904;28;1292;-83
2021/12/27 00:16:45;;;;;;;17.00;11.40;;;;;;;2.43;72.62;99753.31;684802;28;1601;-83
2021/12/27 00:17:06;;;;;;;16.15;11.40;;;;;;;2.51;72.88;99771.72;687764;28;1173;-83
2021/12/27 00:17:27;;;;;;;16.40;11.37;;;;;;;2.52;73.08;99776.06;682360;28;1521;-83
2021/12/27 00:17:48;;;;;;;16.70;11.23;;;;;;;2.47;73.12;99765.53;685145;28;1183;-83
2021/12/27 00:18:08;;;;;;;15.88;10.70;;;;;;;2.45;72.65;99757.75;682410;29;1252;-83
2021/12/27 00:18:29;;;;;;;15.90;10.98;;;;;;;2.46;72.66;99761.22;682620;29;751;-83
2021/12/27 00:18:50;;;;;;;17.75;11.75;;;;;;;2.41;72.88;99770.41;685807;28;1606;-83
2021/12/27 00:19:10;;;;;;;18.47;11.73;;;;;;;2.39;73.39;99772.91;687462;28;1122;-83
2021/12/27 00:19:32;;;;;;;18.45;11.43;;;;;;;2.42;73.11;99770.50;690390;28;1009;-83
2021/12/27 00:19:55;;;;;;;17.13;10.75;;;;;;;2.39;73.25;99772.91;684794;28;1262;-83
2021/12/27 00:20:18;;;;;;;17.23;11.20;;;;;;;2.33;73.49;99762.34;685046;28;1087;-83
2021/12/27 00:20:39;;;;;;;17.65;11.07;;;;;;;2.39;73.34;99777.19;682442;29;1154;-83
2021/12/27 00:20:59;;;;;;;18.70;11.52;;;;;;;2.29;73.45;99760.44;682329;28;1292;-82
2021/12/27 00:21:20;;;;;;;19.23;11.50;;;;;;;2.28;73.33;99759.56;686843;28;1091;-83
2021/12/27 00:21:40;;;;;;;19.23;11.47;;;;;;;2.29;73.50;99755.28;687737;28;1036;-83
2021/12/27 00:22:01;;;;;;;17.75;10.57;;;;;;;2.29;73.27;99756.19;685239;28;749;-83
2021/12/27 00:22:22;;;;;;;17.20;10.40;;;;;;;2.34;73.64;99770.94;687317;28;1624;-83
2021/12/27 00:22:45;;;;;;;16.95;10.68;;;;;;;2.37;73.51;99781.41;685000;28;1278;-83
2021/12/27 00:23:06;;;;;;;16.45;10.70;;;;;;;2.35;73.68;99771.03;685068;28;1217;-83
2021/12/27 00:23:26;;;;;;;16.57;10.90;;;;;;;2.28;73.80;99762.13;685166;28;994;-83
2021/12/27 00:23:47;;;;;;;16.07;10.87;;;;;;;2.38;73.78;99778.88;687727;28;1059;-83
2021/12/27 00:24:08;;;;;;;16.35;11.20;;;;;;;2.39;73.80;99778.06;687569;28;1282;-83
2021/12/27 00:24:28;;;;;;;15.00;10.57;;;;;;;2.30;74.08;99757.06;682338;29;1257;-83
2021/12/27 00:24:50;;;;;;;15.57;10.50;;;;;;;2.27;73.75;99759.50;678482;29;1754;-83
2021/12/27 00:25:11;;;;;;;14.27;9.88;;;;;;;2.28;73.83;99758.69;674504;29;1220;-83
2021/12/27 00:25:32;;;;;;;15.07;10.18;;;;;;;2.41;73.93;99776.47;676915;29;1250;-83
2021/12/27 00:25:52;;;;;;;15.90;10.20;;;;;;;2.44;73.77;99770.53;679577;29;1126;-83
2021/12/27 00:26:13;;;;;;;17.67;10.82;;;;;;;2.41;73.67;99775.56;684999;28;1074;-84
2021/12/27 00:26:34;;;;;;;18.17;10.90;;;;;;;2.32;74.26;99760.56;685170;28;887;-83
2021/12/27 00:26:54;;;;;;;15.70;10.63;;;;;;;2.38;73.93;99776.31;686977;28;1064;-83
2021/12/27 00:27:15;;;;;;;15.60;10.70;;;;;;;2.38;73.66;99770.28;679572;28;1410;-83
2021/12/27 00:27:36;;;;;;;15.60;11.20;;;;;;;2.36;73.69;99762.47;677263;29;1440;-83
2021/12/27 00:27:57;;;;;;;15.57;11.13;;;;;;;2.36;74.12;99759.91;676895;29;1219;-83
2021/12/27 00:28:17;;;;;;;14.90;11.07;;;;;;;2.45;73.90;99767.19;679769;29;1112;-83
2021/12/27 00:28:38;;;;;;;14.40;10.63;;;;;;;2.47;73.77;99765.53;682401;28;1165;-83
2021/12/27 00:28:59;;;;;;;15.37;10.97;;;;;;;2.48;74.17;99780.19;685206;28;772;-83
2021/12/27 00:29:20;;;;;;;15.25;10.55;;;;;;;2.43;73.90;99767.09;683889;28;1351;-83
2021/12/27 00:29:41;;;;;;;16.67;10.70;;;;;;;2.45;73.55;99757.75;682024;28;1610;-83
2021/12/27 00:30:03;;;;;;;16.98;10.57;;;;;;;2.49;73.71;99773.34;677180;29;1374;-83
2021/12/27 00:30:24;;;;;;;17.90;11.20;;;;;;;2.52;73.88;99778.63;682394;28;1270;-84
2021/12/27 00:30:45;;;;;;;17.75;11.13;;;;;;;2.44;73.82;99761.13;685448;28;1350;-83
2021/12/27 00:31:06;;;;;;;19.30;11.50;;;;;;;2.41;74.04;99761.00;683974;28;1271;-83
2021/12/27 00:31:26;;;;;;;18.37;11.13;;;;;;;2.49;73.97;99770.78;682439;28;1650;-83
2021/12/27 00:31:47;;;;;;;17.10;11.02;;;;;;;2.45;73.82;99757.75;682319;28;1449;-83
2021/12/27 00:32:08;;;;;;;16.23;10.60;;;;;;;2.51;73.50;99771.72;679562;29;1203;-83
2021/12/27 00:32:28;;;;;;;16.35;10.70;;;;;;;2.45;73.76;99760.31;677196;29;1143;-83
2021/12/27 00:32:50;;;;;;;16.97;10.80;;;;;;;2.43;73.94;99755.91;679852;29;1166;-83
2021/12/27 00:33:11;;;;;;;15.82;10.63;;;;;;;2.46;73.81;99769.81;682427;28;1231;-83
2021/12/27 00:33:32;;;;;;;15.52;10.40;;;;;;;2.46;73.82;99762.06;685228;28;889;-83
2021/12/27 00:33:52;;;;;;;15.40;10.45;;;;;;;2.42;73.59;99754.16;687001;28;1060;-83
2021/12/27 00:34:13;;;;;;;16.77;10.65;;;;;;;2.42;73.70;99764.44;684947;28;1444;-83
2021/12/27 00:34:36;;;;;;;18.33;10.90;;;;;;;2.52;74.35;99768.31;685144;28;780;-83
2021/12/27 00:34:56;;;;;;;18.63;11.23;;;;;;;2.44;74.04;99750.84;685007;28;1143;-83
2021/12/27 00:35:36;;;;;;;16.80;10.83;;;;;;;2.48;74.14;99761.25;687787;28;1061;-83
2021/12/27 00:35:57;;;;;;;15.35;10.15;;;;;;;2.42;74.11;99757.63;685534;28;1653;-83
2021/12/27 00:36:18;;;;;;;16.42;10.40;;;;;;;2.42;74.02;99762.75;679749;28;1198;-82
2021/12/27 00:36:39;;;;;;;16.40;10.35;;;;;;;2.41;74.00;99748.13;682404;28;1227;-83
2021/12/27 00:37:00;;;;;;;16.30;10.55;;;;;;;2.45;73.88;99756.88;685284;28;764;-83
2021/12/27 00:37:21;;;;;;;16.63;10.60;;;;;;;2.45;74.05;99760.31;685054;28;1040;-83
2021/12/27 00:37:42;;;;;;;16.10;10.73;;;;;;;2.50;74.04;99764.81;685059;28;1392;-83
2021/12/27 00:38:03;;;;;;;15.98;11.15;;;;;;;2.46;74.10;99756.94;684974;28;1122;-84
2021/12/27 00:38:24;;;;;;;16.95;11.57;;;;;;;2.41;74.09;99750.72;682547;29;1324;-83
2021/12/27 00:38:45;;;;;;;17.38;11.50;;;;;;;2.40;73.84;99759.22;682304;28;1167;-83
2021/12/27 00:39:05;;;;;;;17.20;11.30;;;;;;;2.35;74.26;99755.56;684971;28;1342;-83
2021/12/27 00:39:26;;;;;;;16.15;10.90;;;;;;;2.41;74.38;99755.84;681312;28;1698;-83
2021/12/27 00:40:09;;;;;;;17.05;11.43;;;;;;;2.50;74.02;99759.66;686029;28;1521;-83
2021/12/27 00:40:30;;;;;;;17.88;11.88;;;;;;;2.48;74.31;99748.38;684805;28;1315;-83
2021/12/27 00:40:51;;;;;;;16.67;11.27;;;;;;;2.47;73.81;99744.94;682449;29;1025;-84
2021/12/27 00:41:12;;;;;;;17.63;11.30;;;;;;;2.44;74.31;99744.78;687316;28;1042;-84
2021/12/27 00:41:32;;;;;;;17.05;10.90;;;;;;;2.38;74.28;99745.41;684947;28;1353;-83
2021/12/27 00:41:56;;;;;;;17.52;11.15;;;;;;;2.40;74.22;99758.34;682401;28;1173;-83
2021/12/27 00:42:16;;;;;;;17.80;11.40;;;;;;;2.31;74.54;99748.50;679716;29;1010;-83
2021/12/27 00:42:37;;;;;;;16.88;10.75;;;;;;;2.31;74.35;99745.94;684925;28;1287;-84
2021/12/27 00:42:58;;;;;;;17.08;10.60;;;;;;;2.28;74.34;99743.25;685060;28;1216;-83
2021/12/27 00:43:19;;;;;;;17.00;10.50;;;;;;;2.29;74.21;99743.31;682258;29;1248;-84
2021/12/27 00:43:40;;;;;;;18.50;11.20;;;;;;;2.27;74.48;99737.19;679770;29;1179;-83
2021/12/27 00:44:01;;;;;;;19.65;11.10;;;;;;;2.32;74.86;99750.28;677289;29;972;-84
2021/12/27 00:44:21;;;;;;;19.33;10.93;;;;;;;2.25;74.42;99740.53;677022;29;988;-83
2021/12/27 00:44:43;;;;;;;18.30;10.60;;;;;;;2.29;74.88;99740.75;681961;29;1240;-83
2021/12/27 00:45:04;;;;;;;16.55;10.57;;;;;;;2.25;74.59;99732.81;682375;29;1544;-84
2021/12/27 00:45:25;;;;;;;15.85;10.50;;;;;;;2.24;74.69;99737.06;682380;28;1911;-83
2021/12/27 00:45:46;;;;;;;16.05;10.60;;;;;;;2.24;74.76;99741.31;678021;29;1284;-84
2021/12/27 00:46:06;;;;;;;16.52;10.65;;;;;;;2.29;74.66;99747.56;679801;29;969;-83
2021/12/27 00:46:27;;;;;;;16.20;10.60;;;;;;;2.17;74.83;99728.19;680258;29;760;-84
2021/12/27 00:46:47;;;;;;;15.33;10.50;;;;;;;2.18;74.70;99729.97;681486;28;1080;-83
2021/12/27 00:47:08;;;;;;;15.20;10.98;;;;;;;2.22;74.75;99735.22;685358;28;1075;-83
2021/12/27 00:47:28;;;;;;;15.90;11.43;;;;;;;2.17;74.49;99725.63;685562;28;856;-83
2021/12/27 00:47:49;;;;;;;15.87;11.23;;;;;;;2.25;74.92;99741.41;690805;28;1116;-83
2021/12/27 00:48:10;;;;;;;15.70;10.70;;;;;;;2.20;74.86;99726.56;690031;28;1519;-84
2021/12/27 00:48:31;;;;;;;16.27;10.63;;;;;;;2.25;75.20;99728.53;687822;28;803;-83
2021/12/27 00:48:51;;;;;;;17.48;11.00;;;;;;;2.30;74.86;99731.31;686412;28;1315;-84
2021/12/27 00:49:12;;;;;;;18.77;11.40;;;;;;;2.38;74.74;99729.94;684671;28;1292;-83
2021/12/27 00:49:32;;;;;;;18.52;11.15;;;;;;;2.39;74.37;99725.69;687532;28;1309;-83
2021/12/27 00:49:53;;;;;;;18.88;11.15;;;;;;;2.42;74.68;99720.66;690589;28;1082;-84
2021/12/27 00:50:14;;;;;;;17.33;10.57;;;;;;;2.40;74.05;99723.16;690401;28;1035;-84
2021/12/27 00:50:35;;;;;;;17.52;10.70;;;;;;;2.41;74.42;99714.66;687817;28;1372;-83
2021/12/27 00:50:56;;;;;;;16.45;10.57;;;;;;;2.37;74.10;99714.47;682130;29;997;-83
2021/12/27 00:51:16;;;;;;;17.30;10.87;;;;;;;2.39;74.44;99725.69;682136;28;1445;-83
2021/12/27 00:51:37;;;;;;;17.98;10.77;;;;;;;2.33;74.13;99721.16;687771;28;1217;-83
2021/12/27 00:51:58;;;;;;;19.17;10.98;;;;;;;2.37;73.99;99714.47;682386;28;1198;-83
2021/12/27 00:52:18;;;;;;;18.08;11.07;;;;;;;2.48;74.35;99722.63;679772;29;1147;-83
2021/12/27 00:52:40;;;;;;;15.67;10.53;;;;;;;2.51;73.95;99726.22;679815;29;1106;-83
2021/12/27 00:53:00;;;;;;;16.42;11.25;;;;;;;2.45;74.19;99720.81;682148;29;1710;-83
2021/12/27 00:53:21;;;;;;;15.53;11.00;;;;;;;2.51;73.88;99720.22;685059;28;1178;-83
2021/12/27 00:53:42;;;;;;;16.38;11.13;;;;;;;2.50;74.12;99723.59;688669;28;944;-83
2021/12/27 00:54:03;;;;;;;16.52;11.05;;;;;;;2.49;73.60;99717.56;685063;28;1137;-84
2021/12/27 00:54:24;;;;;;;17.30;11.20;;;;;;;2.56;73.78;99726.41;682417;28;1178;-83
2021/12/27 00:54:44;;;;;;;16.42;10.65;;;;;;;2.59;73.78;99724.84;676750;29;1148;-83
2021/12/27 00:55:07;;;;;;;16.13;10.40;;;;;;;2.57;73.30;99723.91;682404;29;1267;-83
2021/12/27 00:55:28;;;;;;;17.48;10.80;;;;;;;2.51;73.55;99709.91;685126;28;1216;-83
2021/12/27 00:55:48;;;;;;;17.90;11.20;;;;;;;2.38;73.69;99709.34;686517;28;1146;-84
2021/12/27 00:56:09;;;;;;;17.98;10.98;;;;;;;2.37;73.92;99705.03;690356;28;1170;-83
2021/12/27 00:56:29;;;;;;;19.00;10.80;;;;;;;2.37;73.75;99712.75;690516;28;831;-83
2021/12/27 00:56:50;;;;;;;18.70;10.70;;;;;;;2.34;73.96;99707.47;683428;28;1330;-83
2021/12/27 00:57:11;;;;;;;17.70;10.52;;;;;;;2.43;73.91;99723.31;683033;28;989;-83
2021/12/27 00:57:31;;;;;;;14.77;10.20;;;;;;;2.41;74.20;99716.34;682516;29;1264;-83
2021/12/27 00:57:53;;;;;;;15.63;10.47;;;;;;;2.39;74.01;99726.56;682464;29;1081;-83
2021/12/27 00:58:13;;;;;;;16.88;11.15;;;;;;;2.34;74.27;99714.31;685011;28;1047;-83
2021/12/27 00:58:37;;;;;;;17.88;11.70;;;;;;;2.42;74.38;99725.81;685956;28;1575;-83
2021/12/27 00:58:57;;;;;;;16.90;11.50;;;;;;;2.38;74.39;99719.66;686414;28;1590;-83
2021/12/27 00:59:18;;;;;;;17.38;11.07;;;;;;;2.37;73.95;99704.16;686702;28;1343;-83
2021/12/27 00:59:39;;;;;;;17.17;10.48;;;;;;;2.50;74.06;99718.44;681998;28;1279;-83
2021/12/27 00:59:59;;;;;;;18.27;11.10;;;;;;;2.42;73.77;99711.28;685112;28;1205;-83
2021/12/27 01:00:23;;;;;;;16.67;11.30;;;;;;;2.45;74.30;99715.69;690303;28;1315;-83
2021/12/27 01:00:44;;;;;;;17.30;11.90;;;;;;;2.44;74.03;99713.88;687475;28;1395;-83
2021/12/27 01:01:04;;;;;;;17.38;11.55;;;;;;;2.42;74.15;99712.94;682016;28;1700;-84
2021/12/27 01:01:25;;;;;;;17.05;11.27;;;;;;;2.39;73.67;99710.25;685114;28;1201;-83
2021/12/27 01:01:46;;;;;;;17.23;11.07;;;;;;;2.41;74.03;99713.75;691751;28;1251;-84
2021/12/27 01:02:07;;;;;;;16.70;10.52;;;;;;;2.48;74.20;99714.91;687793;28;1222;-84
2021/12/27 01:02:30;;;;;;;17.55;10.80;;;;;;;2.65;73.90;99715.66;685185;28;867;-83
2021/12/27 01:02:53;;;;;;;16.95;10.75;;;;;;;2.68;73.65;99719.22;685068;28;1129;-83
2021/12/27 01:03:14;;;;;;;16.10;10.82;;;;;;;2.73;73.69;99728.06;682095;29;1080;-83
2021/12/27 01:04:08;;;;;;;16.25;10.75;;;;;;;2.83;73.57;99733.59;679935;29;1218;-84
2021/12/27 01:04:29;;;;;;;16.88;11.00;;;;;;;2.80;72.89;99713.72;681670;28;1558;-83
2021/12/27 01:04:50;;;;;;;16.40;11.10;;;;;;;2.82;73.22;99732.69;679820;29;997;-83
2021/12/27 01:05:11;;;;;;;16.57;10.60;;;;;;;2.77;72.93;99718.75;683663;28;1677;-83
2021/12/27 01:05:31;;;;;;;16.77;10.55;;;;;;;2.75;73.10;99715.22;687784;28;1960;-83
2021/12/27 01:05:52;;;;;;;16.25;10.40;;;;;;;2.73;73.18;99717.75;685521;28;1388;-83
2021/12/27 01:06:13;;;;;;;16.10;10.17;;;;;;;2.71;72.85;99719.34;682348;28;1025;-84
2021/12/27 01:06:34;;;;;;;15.25;9.80;;;;;;;2.73;72.90;99716.84;682397;28;1188;-83
2021/12/27 01:06:54;;;;;;;16.15;9.82;;;;;;;2.79;73.21;99721.38;686643;28;1314;-83
2021/12/27 01:07:16;;;;;;;16.27;10.05;;;;;;;2.65;73.02;99716.53;687614;28;1070;-83
2021/12/27 01:07:36;;;;;;;17.80;10.80;;;;;;;2.63;73.36;99725.88;690602;28;783;-83
2021/12/27 01:07:57;;;;;;;18.10;10.80;;;;;;;2.54;73.15;99710.03;687706;28;1148;-83
2021/12/27 01:08:18;;;;;;;17.65;11.15;;;;;;;2.56;73.76;99729.00;682480;28;1088;-83
2021/12/27 01:08:38;;;;;;;16.33;10.63;;;;;;;2.51;73.48;99726.22;682324;28;1230;-83
2021/12/27 01:08:59;;;;;;;15.32;10.50;;;;;;;2.53;73.92;99739.19;683136;28;740;-83
2021/12/27 01:09:38;;;;;;;13.90;9.93;;;;;;;2.51;73.80;99725.34;684183;28;1231;-84
2021/12/27 01:10:14;;;;;;;17.00;11.02;;;;;;;2.52;73.49;99716.81;682536;29;914;-83
2021/12/27 01:11:09;;;;;;;17.92;11.40;;;;;;;2.52;73.84;99730.59;685187;28;874;-84
2021/12/27 01:12:47;;;;;;;17.98;10.90;;;;;;;2.46;74.38;99713.16;683025;28;1204;-84
2021/12/27 01:13:43;;;;;;;15.75;10.68;;;;;;;2.51;74.00;99725.34;687736;28;1067;-83
2021/12/27 01:14:26;;;;;;;15.82;10.77;;;;;;;2.57;74.24;99735.94;687870;28;1106;-84
2021/12/27 01:15:06;;;;;;;16.88;11.80;;;;;;;2.44;74.24;99724.19;684995;28;2010;-83
2021/12/27 01:16:12;;;;;;;18.35;11.35;;;;;;;2.46;74.11;99720.88;687731;28;1310;-83
2021/12/27 01:16:33;;;;;;;18.55;11.48;;;;;;;2.47;74.27;99719.19;683004;28;1555;-84
2021/12/27 01:16:53;;;;;;;19.17;11.27;;;;;;;2.42;74.07;99712.94;686365;28;1171;-83
2021/12/27 01:17:14;;;;;;;18.88;11.27;;;;;;;2.43;74.05;99718.19;687800;28;992;-83
2021/12/27 01:17:41;;;;;;;17.17;10.63;;;;;;;2.49;74.40;99733.00;685112;28;811;-83
2021/12/27 01:18:03;;;;;;;18.67;11.77;;;;;;;2.58;74.60;99740.28;687684;28;1993;-83
2021/12/27 01:18:23;;;;;;;19.67;11.98;;;;;;;2.61;74.10;99731.81;687582;28;1821;-83
2021/12/27 01:18:47;;;;;;;19.33;11.80;;;;;;;2.56;74.41;99735.03;684943;28;1072;-83
2021/12/27 01:19:08;;;;;;;18.08;11.20;;;;;;;2.51;74.27;99725.34;687743;28;1254;-84
2021/12/27 01:19:29;;;;;;;18.40;11.30;;;;;;;2.51;74.40;99721.06;688581;28;1728;-84
2021/12/27 01:19:49;;;;;;;17.60;11.37;;;;;;;2.55;73.86;99727.25;685031;28;1368;-83
2021/12/27 01:20:15;;;;;;;17.45;11.00;;;;;;;2.63;73.79;99731.03;682351;29;1138;-83
2021/12/27 01:20:36;;;;;;;16.10;10.80;;;;;;;2.48;74.00;99731.25;679704;29;1360;-84
2021/12/27 01:20:57;;;;;;;17.45;11.23;;;;;;;2.34;74.30;99733.22;682447;29;1096;-83
2021/12/27 01:21:20;;;;;;;17.07;11.03;;;;;;;2.34;74.78;99728.06;684925;28;1137;-84
2021/12/27 01:21:40;;;;;;;17.13;10.55;;;;;;;2.28;74.78;99722.66;685031;28;1115;-84
2021/12/27 01:22:02;;;;;;;15.57;10.30;;;;;;;2.42;74.75;99726.72;685060;28;1017;-84
2021/12/27 01:22:22;;;;;;;13.95;10.02;;;;;;;2.43;74.44;99727.56;682242;29;1523;-83
2021/12/27 01:22:43;;;;;;;14.23;9.93;;;;;;;2.36;74.57;99713.56;683147;28;1132;-84
2021/12/27 01:23:04;;;;;;;14.13;9.55;;;;;;;2.42;74.46;99731.88;690473;28;1160;-83
2021/12/27 01:23:25;;;;;;;18.40;10.00;;;;;;;2.38;74.62;99734.25;690448;28;1298;-83
2021/12/27 01:23:48;;;;;;;19.33;10.70;;;;;;;2.40;74.92;99718.03;686576;28;1403;-84
2021/12/27 01:24:08;;;;;;;20.55;11.00;;;;;;;2.49;74.47;99719.25;685004;28;1249;-83
2021/12/27 01:24:29;;;;;;;17.80;10.90;;;;;;;2.40;74.64;99723.16;679663;28;1110;-83
2021/12/27 01:24:53;;;;;;;17.25;10.63;;;;;;;2.43;74.36;99728.47;681343;29;1168;-83
2021/12/27 01:25:14;;;;;;;16.65;10.30;;;;;;;2.41;74.64;99732.69;682392;29;1051;-84
2021/12/27 01:25:37;;;;;;;16.27;9.95;;;;;;;2.45;74.58;99725.97;685119;28;835;-83
2021/12/27 01:25:57;;;;;;;16.67;10.38;;;;;;;2.35;74.57;99713.47;686528;28;1365;-84
2021/12/27 01:26:18;;;;;;;17.57;10.80;;;;;;;2.35;74.19;99719.53;682337;29;1156;-83
2021/12/27 01:26:39;;;;;;;18.00;11.40;;;;;;;2.38;74.54;99723.94;682438;28;1289;-83
2021/12/27 01:27:02;;;;;;;18.55;11.27;;;;;;;2.37;74.51;99717.91;685255;28;1670;-83
2021/12/27 01:27:23;;;;;;;17.98;11.07;;;;;;;2.40;74.53;99720.59;680150;29;1411;-83
2021/12/27 01:27:44;;;;;;;17.80;10.68;;;;;;;2.35;74.61;99716.97;686187;28;1125;-84
2021/12/27 01:28:06;;;;;;;16.77;10.63;;;;;;;2.41;74.54;99718.91;685168;28;1173;-84
2021/12/27 01:28:26;;;;;;;16.45;10.50;;;;;;;2.37;74.29;99710.16;685486;28;977;-84
2021/12/27 01:28:47;;;;;;;17.52;10.88;;;;;;;2.40;74.64;99718.03;688156;28;1146;-83
2021/12/27 01:29:09;;;;;;;19.83;11.07;;;;;;;2.45;74.45;99728.56;688049;28;1182;-83
2021/12/27 01:29:29;;;;;;;19.80;11.00;;;;;;;2.40;74.40;99722.31;687364;28;1959;-83
2021/12/27 01:30:37;;;;;;;20.17;11.40;;;;;;;2.48;74.43;99733.81;688318;28;1143;-83
2021/12/27 01:30:57;;;;;;;17.58;11.05;;;;;;;2.48;74.34;99720.94;689095;28;1040;-84
2021/12/27 01:31:18;;;;;;;17.80;11.07;;;;;;;2.48;74.53;99725.22;690938;28;1026;-83
2021/12/27 01:31:39;;;;;;;18.00;10.70;;;;;;;2.55;74.19;99729.81;690245;28;2275;-83
2021/12/27 01:31:59;;;;;;;16.90;10.70;;;;;;;2.41;74.35;99712.09;691013;28;1286;-83
2021/12/27 01:32:21;;;;;;;17.10;11.07;;;;;;;2.43;74.04;99718.19;685416;28;1198;-84
2021/12/27 01:32:49;;;;;;;16.95;11.18;;;;;;;2.44;74.41;99730.22;686384;28;1251;-83
2021/12/27 01:33:10;;;;;;;18.50;11.20;;;;;;;2.32;74.16;99720.28;688188;28;1329;-84
2021/12/27 01:33:31;;;;;;;18.83;10.97;;;;;;;2.37;74.30;99728.19;688288;28;787;-83
2021/12/27 01:33:52;;;;;;;18.23;10.98;;;;;;;2.37;74.77;99727.34;685523;28;1402;-84
2021/12/27 01:34:13;;;;;;;18.08;11.27;;;;;;;2.35;74.23;99719.53;685459;28;1206;-84
2021/12/27 01:34:34;;;;;;;17.75;11.43;;;;;;;2.33;74.29;99716.03;682992;28;1217;-83
2021/12/27 01:34:55;;;;;;;17.98;11.65;;;;;;;2.33;74.06;99713.44;681825;29;1163;-83
2021/12/27 01:35:17;;;;;;;17.05;10.90;;;;;;;2.42;74.62;99720.66;682754;29;1243;-84
2021/12/27 01:35:37;;;;;;;16.45;10.60;;;;;;;2.37;74.17;99725.63;682080;29;1395;-84
2021/12/27 01:35:59;;;;;;;17.25;10.65;;;;;;;2.39;74.37;99731.72;690754;28;1281;-83
2021/12/27 01:36:20;;;;;;;17.98;11.20;;;;;;;2.31;74.61;99717.63;690954;28;1215;-84
2021/12/27 01:36:40;;;;;;;17.77;11.30;;;;;;;2.32;74.33;99720.28;685529;28;1294;-84
2021/12/27 01:37:01;;;;;;;16.73;10.90;;;;;;;2.37;74.55;99723.03;685522;28;1370;-84
2021/12/27 01:37:22;;;;;;;16.38;10.88;;;;;;;2.34;74.31;99720.34;679942;29;1537;-83
2021/12/27 01:37:44;;;;;;;16.27;10.93;;;;;;;2.43;74.50;99732.72;686016;28;1302;-84
2021/12/27 01:38:04;;;;;;;15.93;10.93;;;;;;;2.37;74.34;99723.03;688376;28;1062;-84
2021/12/27 01:38:25;;;;;;;16.00;10.87;;;;;;;2.38;74.79;99719.66;688162;28;1088;-84
2021/12/27 01:38:48;;;;;;;15.18;10.48;;;;;;;2.44;74.22;99731.91;682808;28;1266;-83
2021/12/27 01:39:08;;;;;;;15.52;10.30;;;;;;;2.39;74.22;99726.56;680131;29;1124;-83
2021/12/27 01:39:29;;;;;;;16.80;10.80;;;;;;;2.41;74.56;99724.97;685195;28;1354;-83
2021/12/27 01:39:49;;;;;;;18.02;11.13;;;;;;;2.43;74.11;99730.16;682887;29;1060;-83
2021/12/27 01:40:13;;;;;;;17.50;11.18;;;;;;;2.45;74.13;99729.41;680300;29;1041;-84
2021/12/27 01:40:33;;;;;;;16.05;10.75;;;;;;;2.43;74.53;99733.63;681347;29;811;-84
2021/12/27 01:40:57;;;;;;;16.88;10.85;;;;;;;2.41;74.45;99730.13;686019;28;1308;-84
2021/12/27 01:41:17;;;;;;;17.60;11.35;;;;;;;2.40;74.57;99727.47;688127;28;1325;-84
2021/12/27 01:41:38;;;;;;;19.67;11.95;;;;;;;2.48;74.70;99735.50;688936;28;1786;-85
2021/12/27 01:41:59;;;;;;;19.83;11.80;;;;;;;2.51;74.33;99733.09;685578;28;825;-83
2021/12/27 01:42:20;;;;;;;20.20;11.20;;;;;;;2.48;74.65;99726.09;680279;29;1202;-83
2021/12/27 01:43:12;;;;;;;18.85;10.50;;;;;;;2.65;74.33;99737.16;680227;28;1290;-84
2021/12/27 01:43:35;;;;;;;18.40;11.15;;;;;;;2.58;74.04;99732.53;679075;29;891;-84
2021/12/27 01:43:56;;;;;;;18.88;11.40;;;;;;;2.72;73.72;99739.19;685781;28;1431;-84
2021/12/27 01:44:16;;;;;;;17.35;11.07;;;;;;;2.79;73.67;99739.41;690313;28;1034;-83
2021/12/27 01:44:39;;;;;;;16.48;10.50;;;;;;;2.79;73.82;99734.25;690463;28;760;-84
2021/12/27 01:44:59;;;;;;;17.48;10.60;;;;;;;2.77;73.51;99733.31;685235;28;1259;-83
2021/12/27 01:45:24;;;;;;;17.90;10.60;;;;;;;2.84;73.29;99730.19;680366;29;1986;-84
2021/12/27 01:45:48;;;;;;;18.92;10.90;;;;;;;2.68;73.47;99728.66;681062;28;1455;-83
2021/12/27 01:46:13;;;;;;;17.55;10.65;;;;;;;2.69;73.23;99738.16;682180;29;1252;-84
2021/12/27 01:46:33;;;;;;;16.10;10.40;;;;;;;2.57;73.47;99730.78;685624;28;1067;-84
2021/12/27 01:46:54;;;;;;;15.47;10.23;;;;;;;2.55;73.62;99725.56;687532;28;1209;-83
2021/12/27 01:47:15;;;;;;;17.13;10.60;;;;;;;2.62;73.90;99738.72;682864;28;1168;-84
2021/12/27 01:47:35;;;;;;;17.55;10.85;;;;;;;2.56;73.73;99735.03;685463;28;1131;-83
2021/12/27 01:47:56;;;;;;;18.70;11.23;;;;;;;2.54;73.98;99725.47;687831;28;1436;-83
2021/12/27 01:48:21;;;;;;;17.70;10.98;;;;;;;2.62;73.70;99739.56;690952;28;1084;-84
2021/12/27 01:48:47;;;;;;;18.25;10.80;;;;;;;2.60;73.74;99725.75;685018;28;1270;-83